createdAt,value
2019-04-29T00:01:50.525Z,101370
2019-04-29T00:07:13.288Z,101361
2019-04-29T00:12:36.085Z,101371
2019-04-29T00:17:58.814Z,101365
2019-04-29T00:23:21.516Z,101368
2019-04-29T00:28:45.005Z,101368
2019-04-29T00:34:08.858Z,101368
2019-04-29T00:39:31.676Z,101367
2019-04-29T00:44:54.469Z,101370
2019-04-29T00:50:17.211Z,101368
2019-04-29T00:55:40.350Z,101369
2019-04-29T01:01:03.089Z,101370
2019-04-29T01:06:26.740Z,101368
2019-04-29T01:11:49.437Z,101371
2019-04-29T01:17:12.212Z,101373
2019-04-29T01:22:35.394Z,101377
2019-04-29T01:27:58.119Z,101385
2019-04-29T01:33:20.908Z,101380
2019-04-29T01:38:48.508Z,101383
2019-04-29T01:44:08.338Z,101381
2019-04-29T01:49:31.097Z,101378
2019-04-29T01:54:53.853Z,101390
2019-04-29T02:00:16.852Z,101390
2019-04-29T02:05:39.566Z,101398
2019-04-29T02:11:02.312Z,101406
2019-04-29T02:16:27.107Z,101404
2019-04-29T02:21:49.862Z,101410
2019-04-29T02:27:13.226Z,101406
2019-04-29T02:32:35.908Z,101406
2019-04-29T02:37:59.593Z,101409
2019-04-29T02:43:23.034Z,101406
2019-04-29T02:48:45.861Z,101406
2019-04-29T02:54:08.629Z,101415
2019-04-29T02:59:31.360Z,101402
2019-04-29T03:04:54.096Z,101403
2019-04-29T03:10:17.504Z,101406
2019-04-29T03:15:41.528Z,101400
2019-04-29T03:21:04.684Z,101397
2019-04-29T03:26:27.826Z,101396
2019-04-29T03:31:50.599Z,101390
2019-04-29T03:37:13.337Z,101396
2019-04-29T03:42:36.081Z,101392
2019-04-29T03:47:58.784Z,101391
2019-04-29T03:53:21.465Z,101395
2019-04-29T03:58:45.146Z,101397
2019-04-29T04:04:07.854Z,101401
2019-04-29T04:09:30.509Z,101407
2019-04-29T04:14:53.341Z,101406
2019-04-29T04:20:16.009Z,101405
2019-04-29T04:25:38.679Z,101415
2019-04-29T04:31:01.386Z,101417
2019-04-29T04:36:25.164Z,101427
2019-04-29T04:41:47.811Z,101425
2019-04-29T04:47:10.461Z,101430
2019-04-29T04:52:33.121Z,101429
2019-04-29T04:57:56.507Z,101429
2019-04-29T05:03:20.145Z,101427
2019-04-29T05:08:42.790Z,101430
2019-04-29T05:14:05.498Z,101431
2019-04-29T05:19:28.183Z,101439
2019-04-29T05:24:50.836Z,101445
2019-04-29T05:30:14.298Z,101452
2019-04-29T05:35:40.176Z,101450
2019-04-29T05:41:00.678Z,101454
2019-04-29T05:46:23.395Z,101455
2019-04-29T05:51:47.000Z,101461
2019-04-29T05:57:09.635Z,101468
2019-04-29T06:02:35.082Z,101474
2019-04-29T06:08:00.936Z,101483
2019-04-29T06:13:21.034Z,101482
2019-04-29T06:18:43.645Z,101486
2019-04-29T06:24:06.432Z,101487
2019-04-29T06:29:28.950Z,101492
2019-04-29T06:34:51.628Z,101483
2019-04-29T06:40:14.299Z,101481
2019-04-29T06:45:36.950Z,101487
2019-04-29T06:50:59.637Z,101486
2019-04-29T06:56:22.308Z,101491
2019-04-29T07:01:44.963Z,101498
2019-04-29T07:07:07.641Z,101499
2019-04-29T07:12:30.921Z,101505
2019-04-29T07:17:53.637Z,101498
2019-04-29T07:23:16.347Z,101493
2019-04-29T07:28:39.084Z,101496
2019-04-29T07:34:01.733Z,101509
2019-04-29T07:39:26.663Z,101501
2019-04-29T07:44:48.749Z,101502
2019-04-29T07:50:12.458Z,101508
2019-04-29T07:55:35.101Z,101505
2019-04-29T08:00:57.848Z,101501
2019-04-29T08:06:20.704Z,101510
2019-04-29T08:11:43.483Z,101514
2019-04-29T08:17:06.149Z,101517
2019-04-29T08:22:29.333Z,101510
2019-04-29T08:27:51.800Z,101520
2019-04-29T08:33:14.481Z,101505
2019-04-29T08:38:37.109Z,101505
2019-04-29T08:44:15.148Z,101507
2019-04-29T08:49:23.361Z,101503
2019-04-29T08:54:45.997Z,101499
2019-04-29T09:00:08.690Z,101500
2019-04-29T09:05:31.309Z,101508
2019-04-29T09:10:54.637Z,101501
2019-04-29T09:16:17.303Z,101495
2019-04-29T09:21:39.943Z,101495
2019-04-29T09:27:04.857Z,101496
2019-04-29T09:32:26.278Z,101500
2019-04-29T09:37:53.758Z,101494
2019-04-29T09:43:15.467Z,101497
2019-04-29T09:48:37.214Z,101493
2019-04-29T09:53:59.838Z,101486
2019-04-29T09:59:22.502Z,101486
2019-04-29T10:04:55.714Z,101482
2019-04-29T10:10:08.740Z,101484
2019-04-29T10:15:31.467Z,101483
2019-04-29T10:20:54.101Z,101479
2019-04-29T10:26:16.795Z,101474
2019-04-29T10:31:39.453Z,101467
2019-04-29T10:37:02.657Z,101468
2019-04-29T10:42:25.267Z,101457
2019-04-29T10:47:47.910Z,101466
2019-04-29T10:53:15.337Z,101462
2019-04-29T10:58:35.537Z,101457
2019-04-29T11:04:00.676Z,101449
2019-04-29T11:09:20.998Z,101434
2019-04-29T11:14:43.618Z,101446
2019-04-29T11:20:06.261Z,101437
2019-04-29T11:25:29.917Z,101424
2019-04-29T11:30:52.550Z,101438
2019-04-29T11:36:16.159Z,101429
2019-04-29T11:41:38.773Z,101421
2019-04-29T11:47:01.455Z,101411
2019-04-29T11:52:28.006Z,101405
2019-04-29T11:57:47.703Z,101401
2019-04-29T12:03:14.322Z,101399
2019-04-29T12:08:34.001Z,101397
2019-04-29T12:13:58.825Z,101395
2019-04-29T12:19:21.233Z,101384
2019-04-29T12:24:42.982Z,101375
2019-04-29T12:30:05.590Z,101373
2019-04-29T12:35:30.082Z,101381
2019-04-29T12:40:55.006Z,101378
2019-04-29T12:46:15.019Z,101383
2019-04-29T12:51:37.656Z,101380
2019-04-29T12:57:00.331Z,101380
2019-04-29T13:02:24.192Z,101369
2019-04-29T13:07:45.527Z,101365
2019-04-29T13:13:08.160Z,101358
2019-04-29T13:18:30.850Z,101361
2019-04-29T13:24:05.219Z,101354
2019-04-29T13:29:26.621Z,101356
2019-04-29T13:34:40.898Z,101349
2019-04-29T13:40:03.666Z,101347
2019-04-29T13:45:26.459Z,101341
2019-04-29T13:50:48.982Z,101336
2019-04-29T13:56:24.863Z,101331
2019-04-29T14:01:37.911Z,101326
2019-04-29T14:07:01.463Z,101316
2019-04-29T14:12:47.586Z,101314
2019-04-29T14:17:47.921Z,101327
2019-04-29T14:23:10.620Z,101332
2019-04-29T14:28:34.528Z,101329
2019-04-29T14:34:00.265Z,101315
2019-04-29T14:39:35.794Z,101306
2019-04-29T14:44:43.739Z,101322
2019-04-29T14:50:06.484Z,101320
2019-04-29T14:55:30.956Z,101325
2019-04-29T15:00:53.698Z,101325
2019-04-29T15:06:16.308Z,101317
2019-04-29T15:11:41.027Z,101300
2019-04-29T15:17:03.489Z,101295
2019-04-29T15:22:26.178Z,101300
2019-04-29T15:27:48.848Z,101295
2019-04-29T15:33:12.532Z,101300
2019-04-29T15:38:35.249Z,101299
2019-04-29T15:44:06.795Z,101306
2019-04-29T15:49:24.551Z,101312
2019-04-29T15:54:45.819Z,101318
2019-04-29T16:00:21.053Z,101314
2019-04-29T16:05:32.061Z,101311
2019-04-29T16:10:57.780Z,101318
2019-04-29T16:16:19.766Z,101315
2019-04-29T16:21:42.447Z,101316
2019-04-29T16:32:28.817Z,101325
2019-04-29T16:37:52.583Z,101333
2019-04-29T16:43:15.327Z,101331
2019-04-29T16:48:38.048Z,101320
2019-04-29T16:54:00.759Z,101322
2019-04-29T16:59:26.917Z,101322
2019-04-29T17:04:49.633Z,101319
2019-04-29T17:10:12.819Z,101319
2019-04-29T17:15:36.526Z,101324
2019-04-29T17:26:23.962Z,101330
2019-04-29T17:31:55.696Z,101331
2019-04-29T17:35:16.562Z,101322
2019-04-29T17:35:16.568Z,101320
2019-04-29T17:37:10.522Z,101328
2019-04-29T17:42:33.288Z,101329
2019-04-29T17:47:56.092Z,101328
2019-04-29T17:53:19.603Z,101322
2019-04-29T17:58:43.853Z,101330
2019-04-29T18:04:06.838Z,101334
2019-04-29T18:09:29.761Z,101335
2019-04-29T18:14:54.926Z,101345
2019-04-29T18:20:17.523Z,101344
2019-04-29T18:25:40.019Z,101347
2019-04-29T18:31:02.774Z,101352
2019-04-29T18:36:26.679Z,101355
2019-04-29T18:41:48.062Z,101353
2019-04-29T18:47:20.565Z,101356
2019-04-29T18:52:36.140Z,101356
2019-04-29T18:57:58.781Z,101359
2019-04-29T19:03:21.493Z,101366
2019-04-29T19:08:45.100Z,101365
2019-04-29T19:14:07.803Z,101364
2019-04-29T19:19:34.869Z,101370
2019-04-29T19:24:55.759Z,101377
2019-04-29T19:30:20.923Z,101376
2019-04-29T19:35:40.912Z,101375
2019-04-29T19:41:04.532Z,101374
2019-04-29T19:46:36.683Z,101379
2019-04-29T19:51:52.528Z,101384
2019-04-29T19:57:15.145Z,101385
2019-04-29T20:02:44.873Z,101389
2019-04-29T20:08:02.148Z,101387
2019-04-29T20:13:31.253Z,101391
2019-04-29T20:18:58.626Z,101387
2019-04-29T20:24:15.129Z,101389
2019-04-29T20:29:38.501Z,101388
2019-04-29T20:35:06.797Z,101388
2019-04-29T20:40:21.996Z,101389
2019-04-29T20:45:45.837Z,101387
2019-04-29T20:51:12.947Z,101391
2019-04-29T20:56:35.116Z,101392
2019-04-29T21:02:00.873Z,101391
2019-04-29T21:07:23.544Z,101389
2019-04-29T21:12:42.721Z,101394
2019-04-29T21:18:05.572Z,101389
2019-04-29T21:23:31.406Z,101384
2019-04-29T21:28:53.043Z,101383
2019-04-29T21:34:17.409Z,101379
2019-04-29T21:39:38.354Z,101379
2019-04-29T21:45:03.495Z,101382
2019-04-29T21:50:27.050Z,101388
2019-04-29T21:55:48.365Z,101391
2019-04-29T22:01:11.165Z,101393
2019-04-29T22:06:34.539Z,101390
2019-04-29T22:11:57.235Z,101389
2019-04-29T22:17:19.882Z,101394
2019-04-29T22:22:45.236Z,101395
2019-04-29T22:28:06.148Z,101390
2019-04-29T22:33:33.820Z,101393
2019-04-29T22:38:55.791Z,101391
2019-04-29T22:44:21.654Z,101391
2019-04-29T22:49:40.843Z,101402
2019-04-29T22:55:05.148Z,101404
2019-04-29T23:00:32.526Z,101410
2019-04-29T23:05:49.738Z,101402
2019-04-29T23:11:13.369Z,101397
2019-04-29T23:16:37.023Z,101394
2019-04-29T23:21:58.654Z,101394
2019-04-29T23:27:21.282Z,101388
2019-04-29T23:32:47.418Z,101385
2019-04-29T23:38:09.243Z,101379
2019-04-29T23:43:29.190Z,101377
2019-04-29T23:48:56.422Z,101379
2019-04-29T23:54:16.498Z,101375
2019-04-29T23:59:39.146Z,101373
